Flight Track Log - Related Links

Times and Time Zones

All times are in EDT time to prevent confusion due to time zone crossing. See the SWA1707 flight status page for this flight to view local times or setup timezone preferences in your user account.

Time Position Orientation Groundspeed Altitude Reporting Facility
EDT Latitude Longitude Course Direction KTS MPH feet Rate Location/Type
Fri 02:53:22 PM 33.6500 -84.4667 287° West 171 197 2,400  Level Atlanta TRACON
Fri 02:54:22 PM 33.6667 -84.5333 287° West 214 246 4,100 2,286 Climbing Atlanta TRACON
Fri 02:55:28 PM 33.6833 -84.6167 284° West 265 305 7,200 3,220 Climbing Atlanta TRACON
Fri 02:57:47 PM 33.6917 -84.8228 273° West 287 330 15,100 3,015 Climbing Atlanta Center
Fri 02:58:47 PM 33.6594 -84.9247 249° West 294 338 17,200 2,250 Climbing Atlanta Center
Fri 02:59:47 PM 33.6275 -85.0317 250° West 322 371 19,600 2,367 Climbing Atlanta Center
Fri 03:01:47 PM 33.5544 -85.2653 249° West 370 426 24,300 2,200 Climbing Atlanta Center
Fri 03:02:47 PM 33.5178 -85.3844 250° West 381 438 26,200 1,950 Climbing Atlanta Center
Fri 03:03:47 PM 33.4786 -85.5083 249° West 397 457 28,200 1,550 Climbing Atlanta Center
Fri 03:04:47 PM 33.4394 -85.6344 250° West 408 470 29,300 1,350 Climbing Atlanta Center
Fri 03:05:47 PM 33.3939 -85.7731 249° West 408 470 30,900 1,350 Climbing Atlanta Center
Fri 03:06:47 PM 33.3567 -85.8892 249° West 402 463 32,000 1,100 Climbing Atlanta Center
Fri 03:07:47 PM 33.3128 -86.0275 249° West 422 486 33,100 1,550 Climbing Atlanta Center
Fri 03:08:47 PM 33.2731 -86.1631 251° West 435 501 35,100 1,500 Climbing Atlanta Center
Fri 03:09:47 PM 33.2558 -86.2969 261° West 424 488 36,100 800 Climbing Atlanta Center
Fri 03:10:47 PM 33.2408 -86.4381 263° West 429 494 36,700 900 Climbing Atlanta Center
Fri 03:11:47 PM 33.2131 -86.5714 256° West 430 495 37,900 650 Climbing Atlanta Center
Fri 03:12:47 PM 33.1725 -86.7092 251° West 425 489 38,000 50 Climbing Atlanta Center
Fri 03:13:47 PM 33.1297 -86.8467 250° West 433 498 38,000  Level Atlanta Center
Fri 03:14:47 PM 33.0933 -86.9769 252° West 439 505 38,000  Level Atlanta Center
Fri 03:15:47 PM 33.0461 -87.1142 248° West 439 505 38,000  Level Atlanta Center
Fri 03:16:47 PM 33.0072 -87.2492 251° West 439 505 38,000  Level Atlanta Center
Fri 03:17:47 PM 32.9661 -87.3811 250° West 433 498 38,000  Level Atlanta Center
Fri 03:18:41 PM 32.9272 -87.5058 250° West 424 488 38,000  Level Memphis Center
Fri 03:19:43 PM 32.8861 -87.6369 250° West 423 487 38,000  Level Memphis Center
Fri 03:20:45 PM 32.8444 -87.7669 249° West 423 487 38,000  Level Memphis Center
Fri 03:21:47 PM 32.8031 -87.9031 250° West 422 486 38,000  Level Memphis Center
Fri 03:22:49 PM 32.7628 -88.0303 249° West 419 482 38,000  Level Memphis Center
Fri 03:23:51 PM 32.7222 -88.1597 250° West 419 482 38,000  Level Memphis Center
Fri 03:24:52 PM 32.6825 -88.2889 250° West 419 482 38,000  Level Memphis Center
Fri 03:25:54 PM 32.6325 -88.4408 249° West 419 482 38,000  Level Memphis Center
Fri 03:26:56 PM 32.5928 -88.5686 250° West 418 481 38,000  Level Memphis Center
Fri 03:27:58 PM 32.5525 -88.6953 249° West 418 481 38,000  Level Memphis Center
Fri 03:29:00 PM 32.5108 -88.8239 249° West 417 480 38,000  Level Memphis Center
Fri 03:30:02 PM 32.4683 -88.9578 249° West 427 491 38,000  Level Memphis Center
Fri 03:31:04 PM 32.4244 -89.0914 249° West 432 497 38,000  Level Memphis Center
Fri 03:32:06 PM 32.3708 -89.2542 249° West 439 505 38,000  Level Memphis Center
Fri 03:33:07 PM 32.3269 -89.3903 249° West 439 505 38,000  Level Memphis Center
Fri 03:34:09 PM 32.2814 -89.5275 249° West 444 511 38,000  Level Memphis Center
Fri 03:35:11 PM 32.2364 -89.6644 249° West 446 513 38,000  Level Memphis Center
Fri 03:36:13 PM 32.1906 -89.8017 248° West 446 513 38,000  Level Memphis Center
Fri 03:37:15 PM 32.1458 -89.9389 249° West 447 514 38,000  Level Memphis Center
Fri 03:38:17 PM 32.0908 -90.1008 248° West 447 514 38,000  Level Memphis Center
Fri 03:39:19 PM 32.0458 -90.2356 249° West 447 514 38,000  Level Memphis Center
Fri 03:40:21 PM 31.9997 -90.3711 248° West 447 514 38,000  Level Memphis Center
Fri 03:41:23 PM 31.9547 -90.5033 248° West 442 509 38,000  Level Memphis Center
Fri 03:42:25 PM 31.9103 -90.6358 248° West 440 506 38,000  Level Memphis Center
Fri 03:43:27 PM 31.8561 -90.7942 248° West 439 505 38,000  Level Memphis Center
Fri 03:44:00 PM 31.8400 -90.8406 248° West 439 505 38,000  Level Houston Center
Fri 03:45:02 PM 31.7908 -90.9839 248° West 438 504 38,000  Level Houston Center
Fri 03:46:04 PM 31.7400 -91.1319 248° West 438 504 38,000  Level Houston Center
Fri 03:47:07 PM 31.6947 -91.2642 248° West 438 504 38,000 -48 Level Houston Center
Fri 03:48:08 PM 31.6478 -91.3942 247° West 437 503 37,900 -968 Descending Houston Center
Fri 03:49:11 PM 31.6025 -91.5239 248° West 434 499 36,000 -912 Descending Houston Center
Fri 03:50:13 PM 31.5472 -91.6819 248° West 435 501 36,000  Level Houston Center
Fri 03:51:15 PM 31.4972 -91.8128 246° West 437 503 36,000  Level Houston Center
Fri 03:52:17 PM 31.4486 -91.9436 246° West 437 503 36,000  Level Houston Center
Fri 03:53:19 PM 31.3986 -92.0806 247° West 438 504 36,000  Level Houston Center
Fri 03:54:21 PM 31.3497 -92.2094 246° West 437 503 36,000  Level Houston Center
Fri 03:55:23 PM 31.3011 -92.3375 246° West 436 502 36,000  Level Houston Center
Fri 03:56:26 PM 31.2547 -92.4703 248° West 452 520 36,000  Level Houston Center
Fri 03:57:28 PM 31.1961 -92.6236 246° West 436 502 36,000  Level Houston Center
Fri 03:58:30 PM 31.1469 -92.7517 246° West 436 502 36,000  Level Houston Center
Fri 03:59:32 PM 31.0986 -92.8800 246° West 435 501 36,000  Level Houston Center
Fri 04:00:34 PM 31.0481 -93.0075 245° Southwest 433 498 36,000  Level Houston Center
Fri 04:01:36 PM 30.9992 -93.1361 246° West 434 499 36,000  Level Houston Center
Fri 04:02:39 PM 30.9397 -93.2894 246° West 434 499 36,000  Level Houston Center
Fri 04:03:41 PM 30.8911 -93.4181 246° West 435 501 36,000  Level Houston Center
Fri 04:04:43 PM 30.8411 -93.5453 245° Southwest 435 501 36,000  Level Houston Center
Fri 04:05:45 PM 30.7917 -93.6739 246° West 437 503 36,000  Level Houston Center
Fri 04:06:47 PM 30.7417 -93.8025 246° West 438 504 36,000  Level Houston Center
Fri 04:07:49 PM 30.6808 -93.9575 246° West 440 506 36,000  Level Houston Center
Fri 04:08:51 PM 30.6297 -94.0869 245° Southwest 441 507 36,000  Level Houston Center
Fri 04:09:54 PM 30.5786 -94.2175 246° West 442 509 36,000  Level Houston Center
Fri 04:10:56 PM 30.5269 -94.3461 245° Southwest 443 510 36,000  Level Houston Center
Fri 04:11:58 PM 30.4750 -94.4750 245° Southwest 443 510 36,000  Level Houston Center
Fri 04:13:00 PM 30.4128 -94.6308 245° Southwest 443 510 36,000  Level Houston Center
Fri 04:14:02 PM 30.3608 -94.7592 245° Southwest 443 510 36,000  Level Houston Center
Fri 04:15:04 PM 30.3097 -94.8878 245° Southwest 443 510 36,000  Level Houston Center
Fri 04:16:07 PM 30.2583 -95.0158 245° Southwest 442 509 36,000  Level Houston Center
Fri 04:17:09 PM 30.2072 -95.1428 245° Southwest 442 509 36,000  Level Houston Center
Fri 04:18:11 PM 30.1461 -95.2931 245° Southwest 438 504 36,000  Level Houston Center
Fri 04:19:13 PM 30.0944 -95.4183 245° Southwest 437 503 36,000  Level Houston Center
Fri 04:20:15 PM 30.0433 -95.5439 245° Southwest 436 502 36,000  Level Houston Center
Fri 04:21:17 PM 29.9925 -95.6686 245° Southwest 436 502 36,000  Level Houston Center
Fri 04:22:19 PM 29.9411 -95.7922 244° Southwest 435 501 36,000  Level Houston Center
Fri 04:23:22 PM 29.8792 -95.9439 245° Southwest 435 501 36,000  Level Houston Center
Fri 04:24:24 PM 29.8706 -96.0900 266° West 433 498 36,000  Level Houston Center
Fri 04:25:26 PM 29.8725 -96.2281 271° West 433 498 36,000  Level Houston Center
Fri 04:26:28 PM 29.8764 -96.3664 272° West 434 499 36,000  Level Houston Center
Fri 04:27:30 PM 29.8792 -96.5056 271° West 434 499 36,000 -290 Level Houston Center
Fri 04:28:32 PM 29.8819 -96.6439 271° West 435 501 35,400 -2,032 Descending Houston Center
Fri 04:29:34 PM 29.8842 -96.8089 271° West 434 499 31,800 -2,880 Descending Houston Center
Fri 04:30:37 PM 29.8864 -96.9453 271° West 434 499 29,400 -2,304 Descending Houston Center
Fri 04:31:39 PM 29.8889 -97.0781 271° West 422 486 27,000 -2,274 Descending Houston Center
Fri 04:32:41 PM 29.8906 -97.2075 271° West 411 473 24,700 -2,565 Descending Houston Center
Fri 04:33:43 PM 29.8919 -97.3353 271° West 403 464 21,700 -3,242 Descending Houston Center
Fri 04:34:45 PM 29.8939 -97.4928 271° West 408 470 18,000 -2,903 Descending Houston Center
Fri 04:35:47 PM 29.8958 -97.6258 271° West 405 466 15,700 -2,250 Descending Houston Center
Fri 04:36:05 PM 29.8944 -97.6644 268° West 400 460 15,000 -2,129 Descending Houston Center
Fri 04:36:49 PM 29.8964 -97.7564 271° West 385 443 13,500 -1,964 Descending Houston Center
Fri 04:37:00 PM 29.8967 -97.7750 271° West 375 432 13,200 -484 Descending Houston Center
Fri 04:37:51 PM 29.8964 -97.8675 270° West 350 403 13,000 -393 Descending Houston Center
Fri 04:38:01 PM 29.8881 -97.8822 237° Southwest 324 373 12,800 -1,521 Descending Houston Center
Fri 04:39:02 PM 29.8500 -97.9667 243° Southwest 292 336 11,200 -1,574 Descending Houston Center
Fri 04:40:03 PM 29.8117 -98.0486 242° Southwest 289 333 9,600 -1,552 Descending Houston Center
Fri 04:40:58 PM 29.7794 -98.1219 243° Southwest 283 326 8,200 -1,487 Descending Houston Center
Fri 04:42:00 PM 29.7447 -98.2003 243° Southwest 257 296 6,700 -1,065 Descending Houston Center
Fri 04:43:02 PM 29.7142 -98.2661 242° Southwest 234 269 6,000 -968 Descending Houston Center
Fri 04:44:04 PM 29.6778 -98.3172 231° Southwest 197 227 4,700 -1,113 Descending Houston Center
Fri 04:45:06 PM 29.6367 -98.3586 221° Southwest 197 227 3,700 -1,220 Descending Houston Center
Fri 04:46:07 PM 29.5944 -98.4000 220° Southwest 194 223 2,200 -1,131 Descending Houston Center
Fri 04:47:08 PM 29.5597 -98.4331 220° Southwest 138 159 1,400 -714 Descending Houston Center
Fri 04:48:13 PM 29.5294 -98.4642 222° Southwest 142 163 700 -646 Descending Houston Center
Fri 04:50:00 PM 29.5333 -98.4667 16° North  Level FlightAware Approximate
Fri 04:57:00 PM 29.5340 -98.4691 16° North  Level Estimated

Login

Don't have an account? Register now (free) for customized features, flight alerts, and more!